sensor_id;sensor_type;location;lat;lon;timestamp;P1;durP1;ratioP1;P2;durP2;ratioP2
16731;SDS011;8484;50.904;9.192;2023-11-19T00:01:59;1.70;;;1.60;;
16731;SDS011;8484;50.904;9.192;2023-11-19T00:04:27;1.63;;;1.53;;
16731;SDS011;8484;50.904;9.192;2023-11-19T00:06:55;1.53;;;1.40;;
16731;SDS011;8484;50.904;9.192;2023-11-19T00:09:27;1.50;;;1.40;;
16731;SDS011;8484;50.904;9.192;2023-11-19T00:11:53;1.70;;;1.53;;
16731;SDS011;8484;50.904;9.192;2023-11-19T00:14:20;1.60;;;1.50;;
16731;SDS011;8484;50.904;9.192;2023-11-19T00:16:47;1.80;;;1.70;;
16731;SDS011;8484;50.904;9.192;2023-11-19T00:19:17;1.90;;;1.70;;
16731;SDS011;8484;50.904;9.192;2023-11-19T00:21:44;1.77;;;1.67;;
16731;SDS011;8484;50.904;9.192;2023-11-19T00:24:11;1.93;;;1.80;;
16731;SDS011;8484;50.904;9.192;2023-11-19T00:26:41;2.43;;;1.70;;
16731;SDS011;8484;50.904;9.192;2023-11-19T00:29:08;1.90;;;1.80;;
16731;SDS011;8484;50.904;9.192;2023-11-19T00:31:35;2.33;;;2.10;;
16731;SDS011;8484;50.904;9.192;2023-11-19T00:34:03;2.43;;;2.23;;
16731;SDS011;8484;50.904;9.192;2023-11-19T00:36:32;2.67;;;2.47;;
16731;SDS011;8484;50.904;9.192;2023-11-19T00:38:59;2.73;;;2.53;;
16731;SDS011;8484;50.904;9.192;2023-11-19T00:41:26;3.67;;;3.20;;
16731;SDS011;8484;50.904;9.192;2023-11-19T00:43:53;4.03;;;3.33;;
16731;SDS011;8484;50.904;9.192;2023-11-19T00:46:20;3.40;;;3.10;;
16731;SDS011;8484;50.904;9.192;2023-11-19T00:48:50;3.50;;;3.20;;
16731;SDS011;8484;50.904;9.192;2023-11-19T00:51:17;4.37;;;3.93;;
16731;SDS011;8484;50.904;9.192;2023-11-19T00:53:45;4.53;;;4.00;;
16731;SDS011;8484;50.904;9.192;2023-11-19T00:56:12;5.53;;;4.20;;
16731;SDS011;8484;50.904;9.192;2023-11-19T00:58:39;5.30;;;4.67;;
16731;SDS011;8484;50.904;9.192;2023-11-19T01:01:07;6.17;;;4.53;;
16731;SDS011;8484;50.904;9.192;2023-11-19T01:03:34;4.87;;;4.10;;
16731;SDS011;8484;50.904;9.192;2023-11-19T01:06:01;4.87;;;4.37;;
16731;SDS011;8484;50.904;9.192;2023-11-19T01:08:28;5.83;;;4.90;;
16731;SDS011;8484;50.904;9.192;2023-11-19T01:10:57;6.10;;;4.93;;
16731;SDS011;8484;50.904;9.192;2023-11-19T01:13:25;7.07;;;5.40;;
16731;SDS011;8484;50.904;9.192;2023-11-19T01:15:51;7.93;;;5.50;;
16731;SDS011;8484;50.904;9.192;2023-11-19T01:18:18;7.20;;;5.50;;
16731;SDS011;8484;50.904;9.192;2023-11-19T01:20:45;8.47;;;5.50;;
16731;SDS011;8484;50.904;9.192;2023-11-19T01:23:12;6.63;;;5.67;;
16731;SDS011;8484;50.904;9.192;2023-11-19T01:25:39;7.10;;;5.80;;
16731;SDS011;8484;50.904;9.192;2023-11-19T01:28:07;6.67;;;5.40;;
16731;SDS011;8484;50.904;9.192;2023-11-19T01:30:35;6.90;;;6.00;;
16731;SDS011;8484;50.904;9.192;2023-11-19T01:33:02;6.40;;;5.53;;
16731;SDS011;8484;50.904;9.192;2023-11-19T01:35:29;6.73;;;5.13;;
16731;SDS011;8484;50.904;9.192;2023-11-19T01:37:59;7.23;;;4.93;;
16731;SDS011;8484;50.904;9.192;2023-11-19T01:40:26;8.63;;;5.80;;
16731;SDS011;8484;50.904;9.192;2023-11-19T01:42:53;8.47;;;5.13;;
16731;SDS011;8484;50.904;9.192;2023-11-19T01:45:28;8.03;;;5.97;;
16731;SDS011;8484;50.904;9.192;2023-11-19T01:47:56;9.90;;;6.40;;
16731;SDS011;8484;50.904;9.192;2023-11-19T01:50:23;7.57;;;6.07;;
16731;SDS011;8484;50.904;9.192;2023-11-19T01:52:54;7.20;;;6.17;;
16731;SDS011;8484;50.904;9.192;2023-11-19T01:55:27;7.20;;;5.57;;
16731;SDS011;8484;50.904;9.192;2023-11-19T01:57:54;7.30;;;6.13;;
16731;SDS011;8484;50.904;9.192;2023-11-19T02:00:27;9.80;;;5.77;;
16731;SDS011;8484;50.904;9.192;2023-11-19T02:02:54;8.13;;;6.50;;
16731;SDS011;8484;50.904;9.192;2023-11-19T02:05:21;8.10;;;5.83;;
16731;SDS011;8484;50.904;9.192;2023-11-19T02:07:49;7.47;;;5.60;;
16731;SDS011;8484;50.904;9.192;2023-11-19T02:10:16;5.53;;;4.53;;
16731;SDS011;8484;50.904;9.192;2023-11-19T02:12:44;5.67;;;5.00;;
16731;SDS011;8484;50.904;9.192;2023-11-19T02:15:12;5.97;;;5.20;;
16731;SDS011;8484;50.904;9.192;2023-11-19T02:17:40;6.00;;;4.73;;
16731;SDS011;8484;50.904;9.192;2023-11-19T02:20:08;5.60;;;5.00;;
16731;SDS011;8484;50.904;9.192;2023-11-19T02:22:37;6.23;;;5.00;;
16731;SDS011;8484;50.904;9.192;2023-11-19T02:25:04;5.70;;;4.87;;
16731;SDS011;8484;50.904;9.192;2023-11-19T02:27:44;5.27;;;4.77;;
16731;SDS011;8484;50.904;9.192;2023-11-19T02:30:17;7.07;;;5.60;;
16731;SDS011;8484;50.904;9.192;2023-11-19T02:32:44;7.50;;;5.53;;
16731;SDS011;8484;50.904;9.192;2023-11-19T02:35:11;9.17;;;5.10;;
16731;SDS011;8484;50.904;9.192;2023-11-19T02:37:39;6.77;;;5.17;;
16731;SDS011;8484;50.904;9.192;2023-11-19T02:40:06;6.43;;;5.53;;
16731;SDS011;8484;50.904;9.192;2023-11-19T02:42:38;8.30;;;5.47;;
16731;SDS011;8484;50.904;9.192;2023-11-19T02:45:07;5.10;;;4.60;;
16731;SDS011;8484;50.904;9.192;2023-11-19T02:47:39;6.07;;;5.37;;
16731;SDS011;8484;50.904;9.192;2023-11-19T02:50:07;6.23;;;5.63;;
16731;SDS011;8484;50.904;9.192;2023-11-19T02:52:39;7.80;;;6.27;;
16731;SDS011;8484;50.904;9.192;2023-11-19T02:55:06;8.50;;;6.07;;
16731;SDS011;8484;50.904;9.192;2023-11-19T02:57:37;6.60;;;5.90;;
16731;SDS011;8484;50.904;9.192;2023-11-19T03:00:07;6.70;;;5.97;;
16731;SDS011;8484;50.904;9.192;2023-11-19T03:02:38;8.77;;;6.60;;
16731;SDS011;8484;50.904;9.192;2023-11-19T03:05:10;7.53;;;5.87;;
16731;SDS011;8484;50.904;9.192;2023-11-19T03:07:37;8.00;;;6.73;;
16731;SDS011;8484;50.904;9.192;2023-11-19T03:10:04;7.03;;;6.30;;
16731;SDS011;8484;50.904;9.192;2023-11-19T03:12:34;7.60;;;6.13;;
16731;SDS011;8484;50.904;9.192;2023-11-19T03:15:01;8.00;;;6.63;;
16731;SDS011;8484;50.904;9.192;2023-11-19T03:17:32;9.10;;;7.03;;
16731;SDS011;8484;50.904;9.192;2023-11-19T03:20:00;8.83;;;6.73;;
16731;SDS011;8484;50.904;9.192;2023-11-19T03:22:27;7.33;;;5.80;;
16731;SDS011;8484;50.904;9.192;2023-11-19T03:24:55;7.83;;;5.77;;
16731;SDS011;8484;50.904;9.192;2023-11-19T03:27:22;8.90;;;5.43;;
16731;SDS011;8484;50.904;9.192;2023-11-19T03:29:49;6.17;;;4.60;;
16731;SDS011;8484;50.904;9.192;2023-11-19T03:32:17;6.13;;;4.57;;
16731;SDS011;8484;50.904;9.192;2023-11-19T03:34:46;4.97;;;3.70;;
16731;SDS011;8484;50.904;9.192;2023-11-19T03:37:13;4.77;;;3.57;;
16731;SDS011;8484;50.904;9.192;2023-11-19T03:39:41;4.10;;;3.70;;
16731;SDS011;8484;50.904;9.192;2023-11-19T03:42:08;4.30;;;3.87;;
16731;SDS011;8484;50.904;9.192;2023-11-19T03:44:38;4.90;;;4.20;;
16731;SDS011;8484;50.904;9.192;2023-11-19T03:47:05;4.80;;;4.30;;
16731;SDS011;8484;50.904;9.192;2023-11-19T03:49:32;4.97;;;4.20;;
16731;SDS011;8484;50.904;9.192;2023-11-19T03:52:01;4.30;;;3.50;;
16731;SDS011;8484;50.904;9.192;2023-11-19T03:54:28;5.90;;;3.80;;
16731;SDS011;8484;50.904;9.192;2023-11-19T03:56:55;5.60;;;3.60;;
16731;SDS011;8484;50.904;9.192;2023-11-19T03:59:22;5.10;;;3.73;;
16731;SDS011;8484;50.904;9.192;2023-11-19T04:01:49;4.00;;;3.60;;
16731;SDS011;8484;50.904;9.192;2023-11-19T04:04:16;4.67;;;3.70;;
16731;SDS011;8484;50.904;9.192;2023-11-19T04:06:44;5.60;;;3.73;;
16731;SDS011;8484;50.904;9.192;2023-11-19T04:09:12;4.07;;;3.57;;
16731;SDS011;8484;50.904;9.192;2023-11-19T04:11:39;3.83;;;3.40;;
16731;SDS011;8484;50.904;9.192;2023-11-19T04:14:06;4.53;;;3.63;;
16731;SDS011;8484;50.904;9.192;2023-11-19T04:16:38;7.07;;;4.23;;
16731;SDS011;8484;50.904;9.192;2023-11-19T04:19:05;4.07;;;3.67;;
16731;SDS011;8484;50.904;9.192;2023-11-19T04:21:32;4.10;;;3.70;;
16731;SDS011;8484;50.904;9.192;2023-11-19T04:23:59;3.83;;;3.43;;
16731;SDS011;8484;50.904;9.192;2023-11-19T04:26:28;4.90;;;3.63;;
16731;SDS011;8484;50.904;9.192;2023-11-19T04:28:56;3.97;;;3.50;;
16731;SDS011;8484;50.904;9.192;2023-11-19T04:31:24;5.03;;;3.40;;
16731;SDS011;8484;50.904;9.192;2023-11-19T04:33:56;4.50;;;3.70;;
16731;SDS011;8484;50.904;9.192;2023-11-19T04:36:25;4.67;;;3.83;;
16731;SDS011;8484;50.904;9.192;2023-11-19T04:38:53;4.83;;;3.60;;
16731;SDS011;8484;50.904;9.192;2023-11-19T04:41:20;3.80;;;3.37;;
16731;SDS011;8484;50.904;9.192;2023-11-19T04:43:48;4.27;;;3.43;;
16731;SDS011;8484;50.904;9.192;2023-11-19T04:46:16;4.70;;;3.90;;
16731;SDS011;8484;50.904;9.192;2023-11-19T04:48:44;5.53;;;4.27;;
16731;SDS011;8484;50.904;9.192;2023-11-19T04:51:11;4.53;;;4.07;;
16731;SDS011;8484;50.904;9.192;2023-11-19T04:53:38;7.00;;;4.27;;
16731;SDS011;8484;50.904;9.192;2023-11-19T04:56:08;4.83;;;4.33;;
16731;SDS011;8484;50.904;9.192;2023-11-19T04:58:36;4.27;;;3.87;;
16731;SDS011;8484;50.904;9.192;2023-11-19T05:01:06;9.80;;;4.53;;
16731;SDS011;8484;50.904;9.192;2023-11-19T05:03:39;7.53;;;5.13;;
16731;SDS011;8484;50.904;9.192;2023-11-19T05:06:07;6.33;;;5.00;;
16731;SDS011;8484;50.904;9.192;2023-11-19T05:08:35;6.60;;;5.20;;
16731;SDS011;8484;50.904;9.192;2023-11-19T05:11:02;6.30;;;5.70;;
16731;SDS011;8484;50.904;9.192;2023-11-19T05:13:32;6.20;;;5.60;;
16731;SDS011;8484;50.904;9.192;2023-11-19T05:15:59;5.70;;;5.03;;
16731;SDS011;8484;50.904;9.192;2023-11-19T05:18:28;6.73;;;5.87;;
16731;SDS011;8484;50.904;9.192;2023-11-19T05:20:55;6.40;;;5.63;;
16731;SDS011;8484;50.904;9.192;2023-11-19T05:23:22;6.57;;;4.93;;
16731;SDS011;8484;50.904;9.192;2023-11-19T05:25:50;5.80;;;5.00;;
16731;SDS011;8484;50.904;9.192;2023-11-19T05:28:17;5.77;;;5.17;;
16731;SDS011;8484;50.904;9.192;2023-11-19T05:30:45;10.23;;;5.03;;
16731;SDS011;8484;50.904;9.192;2023-11-19T05:33:13;5.00;;;4.50;;
16731;SDS011;8484;50.904;9.192;2023-11-19T05:35:42;7.20;;;4.80;;
16731;SDS011;8484;50.904;9.192;2023-11-19T05:38:09;4.80;;;4.30;;
16731;SDS011;8484;50.904;9.192;2023-11-19T05:40:36;4.53;;;4.13;;
16731;SDS011;8484;50.904;9.192;2023-11-19T05:43:05;5.50;;;4.17;;
16731;SDS011;8484;50.904;9.192;2023-11-19T05:45:33;4.47;;;4.07;;
16731;SDS011;8484;50.904;9.192;2023-11-19T05:48:00;6.47;;;4.17;;
16731;SDS011;8484;50.904;9.192;2023-11-19T05:50:29;4.93;;;4.43;;
16731;SDS011;8484;50.904;9.192;2023-11-19T05:53:06;7.10;;;4.70;;
16731;SDS011;8484;50.904;9.192;2023-11-19T05:55:38;6.50;;;4.50;;
16731;SDS011;8484;50.904;9.192;2023-11-19T05:58:29;6.17;;;4.40;;
16731;SDS011;8484;50.904;9.192;2023-11-19T06:00:58;4.33;;;3.93;;
16731;SDS011;8484;50.904;9.192;2023-11-19T06:03:28;7.33;;;4.50;;
16731;SDS011;8484;50.904;9.192;2023-11-19T06:05:57;5.27;;;4.17;;
16731;SDS011;8484;50.904;9.192;2023-11-19T06:08:29;4.53;;;4.13;;
16731;SDS011;8484;50.904;9.192;2023-11-19T06:10:57;5.17;;;3.90;;
16731;SDS011;8484;50.904;9.192;2023-11-19T06:13:28;5.20;;;3.37;;
16731;SDS011;8484;50.904;9.192;2023-11-19T06:15:59;4.33;;;3.93;;
16731;SDS011;8484;50.904;9.192;2023-11-19T06:18:26;7.00;;;4.00;;
16731;SDS011;8484;50.904;9.192;2023-11-19T06:20:53;5.17;;;3.77;;
16731;SDS011;8484;50.904;9.192;2023-11-19T06:23:21;4.53;;;3.77;;
16731;SDS011;8484;50.904;9.192;2023-11-19T06:25:49;5.87;;;3.40;;
16731;SDS011;8484;50.904;9.192;2023-11-19T06:28:16;5.30;;;3.10;;
16731;SDS011;8484;50.904;9.192;2023-11-19T06:30:43;3.57;;;2.57;;
16731;SDS011;8484;50.904;9.192;2023-11-19T06:33:12;5.20;;;2.93;;
16731;SDS011;8484;50.904;9.192;2023-11-19T06:35:39;3.50;;;2.70;;
16731;SDS011;8484;50.904;9.192;2023-11-19T06:38:06;2.73;;;2.17;;
16731;SDS011;8484;50.904;9.192;2023-11-19T06:40:34;2.60;;;2.37;;
16731;SDS011;8484;50.904;9.192;2023-11-19T06:43:02;2.23;;;2.03;;
16731;SDS011;8484;50.904;9.192;2023-11-19T06:45:30;2.43;;;2.20;;
16731;SDS011;8484;50.904;9.192;2023-11-19T06:47:57;1.57;;;1.47;;
16731;SDS011;8484;50.904;9.192;2023-11-19T06:50:27;3.40;;;1.53;;
16731;SDS011;8484;50.904;9.192;2023-11-19T06:52:54;1.60;;;1.50;;
16731;SDS011;8484;50.904;9.192;2023-11-19T06:55:21;2.10;;;1.80;;
16731;SDS011;8484;50.904;9.192;2023-11-19T06:57:48;1.77;;;1.67;;
16731;SDS011;8484;50.904;9.192;2023-11-19T07:00:17;3.87;;;1.67;;
16731;SDS011;8484;50.904;9.192;2023-11-19T07:02:44;3.70;;;1.77;;
16731;SDS011;8484;50.904;9.192;2023-11-19T07:05:11;1.63;;;1.53;;
16731;SDS011;8484;50.904;9.192;2023-11-19T07:07:38;2.73;;;1.30;;
16731;SDS011;8484;50.904;9.192;2023-11-19T07:10:06;2.90;;;1.60;;
16731;SDS011;8484;50.904;9.192;2023-11-19T07:12:34;1.87;;;1.40;;
16731;SDS011;8484;50.904;9.192;2023-11-19T07:15:02;1.40;;;1.30;;
16731;SDS011;8484;50.904;9.192;2023-11-19T07:17:31;4.37;;;1.30;;
16731;SDS011;8484;50.904;9.192;2023-11-19T07:19:58;2.97;;;1.30;;
16731;SDS011;8484;50.904;9.192;2023-11-19T07:22:25;4.77;;;1.37;;
16731;SDS011;8484;50.904;9.192;2023-11-19T07:24:54;1.80;;;1.53;;
16731;SDS011;8484;50.904;9.192;2023-11-19T07:27:21;1.97;;;1.00;;
16731;SDS011;8484;50.904;9.192;2023-11-19T07:29:49;3.97;;;1.20;;
16731;SDS011;8484;50.904;9.192;2023-11-19T07:32:16;3.23;;;0.90;;
16731;SDS011;8484;50.904;9.192;2023-11-19T07:34:44;2.17;;;0.80;;
16731;SDS011;8484;50.904;9.192;2023-11-19T07:37:11;3.30;;;1.17;;
16731;SDS011;8484;50.904;9.192;2023-11-19T07:39:38;2.37;;;0.80;;
16731;SDS011;8484;50.904;9.192;2023-11-19T07:42:06;5.37;;;1.30;;
16731;SDS011;8484;50.904;9.192;2023-11-19T07:44:34;3.67;;;1.20;;
16731;SDS011;8484;50.904;9.192;2023-11-19T07:47:01;2.97;;;0.90;;
16731;SDS011;8484;50.904;9.192;2023-11-19T07:49:29;3.93;;;1.17;;
16731;SDS011;8484;50.904;9.192;2023-11-19T07:51:58;3.73;;;1.27;;
16731;SDS011;8484;50.904;9.192;2023-11-19T07:54:25;2.70;;;1.07;;
16731;SDS011;8484;50.904;9.192;2023-11-19T07:56:52;6.00;;;1.20;;
16731;SDS011;8484;50.904;9.192;2023-11-19T07:59:24;1.67;;;0.67;;
16731;SDS011;8484;50.904;9.192;2023-11-19T08:01:51;2.73;;;0.90;;
16731;SDS011;8484;50.904;9.192;2023-11-19T08:04:18;5.33;;;1.30;;
16731;SDS011;8484;50.904;9.192;2023-11-19T08:06:45;6.20;;;1.53;;
16731;SDS011;8484;50.904;9.192;2023-11-19T08:09:14;4.27;;;1.17;;
16731;SDS011;8484;50.904;9.192;2023-11-19T08:11:41;6.67;;;1.10;;
16731;SDS011;8484;50.904;9.192;2023-11-19T08:14:08;4.50;;;1.40;;
16731;SDS011;8484;50.904;9.192;2023-11-19T08:16:35;4.80;;;1.30;;
16731;SDS011;8484;50.904;9.192;2023-11-19T08:19:03;4.27;;;1.17;;
16731;SDS011;8484;50.904;9.192;2023-11-19T08:21:30;5.60;;;1.40;;
16731;SDS011;8484;50.904;9.192;2023-11-19T08:23:57;8.03;;;1.20;;
16731;SDS011;8484;50.904;9.192;2023-11-19T08:26:25;9.03;;;1.67;;
16731;SDS011;8484;50.904;9.192;2023-11-19T08:28:52;4.10;;;1.60;;
16731;SDS011;8484;50.904;9.192;2023-11-19T08:31:19;2.87;;;1.13;;
16731;SDS011;8484;50.904;9.192;2023-11-19T08:33:46;5.17;;;1.30;;
16731;SDS011;8484;50.904;9.192;2023-11-19T08:36:17;3.03;;;1.27;;
16731;SDS011;8484;50.904;9.192;2023-11-19T08:38:44;11.67;;;1.60;;
16731;SDS011;8484;50.904;9.192;2023-11-19T08:41:11;6.07;;;1.27;;
16731;SDS011;8484;50.904;9.192;2023-11-19T08:43:39;5.13;;;1.20;;
16731;SDS011;8484;50.904;9.192;2023-11-19T08:46:09;5.57;;;1.47;;
16731;SDS011;8484;50.904;9.192;2023-11-19T08:48:36;6.37;;;1.63;;
16731;SDS011;8484;50.904;9.192;2023-11-19T08:51:04;4.40;;;1.00;;
16731;SDS011;8484;50.904;9.192;2023-11-19T08:53:31;7.43;;;1.60;;
16731;SDS011;8484;50.904;9.192;2023-11-19T08:55:59;9.57;;;1.67;;
16731;SDS011;8484;50.904;9.192;2023-11-19T08:58:28;5.10;;;1.27;;
16731;SDS011;8484;50.904;9.192;2023-11-19T09:00:57;7.17;;;1.63;;
16731;SDS011;8484;50.904;9.192;2023-11-19T09:03:24;3.17;;;1.03;;
16731;SDS011;8484;50.904;9.192;2023-11-19T09:05:52;2.77;;;1.27;;
16731;SDS011;8484;50.904;9.192;2023-11-19T09:08:19;5.03;;;1.47;;
16731;SDS011;8484;50.904;9.192;2023-11-19T09:10:46;4.27;;;1.33;;
16731;SDS011;8484;50.904;9.192;2023-11-19T09:13:13;6.47;;;1.20;;
16731;SDS011;8484;50.904;9.192;2023-11-19T09:15:40;5.20;;;1.20;;
16731;SDS011;8484;50.904;9.192;2023-11-19T09:18:09;4.20;;;1.60;;
16731;SDS011;8484;50.904;9.192;2023-11-19T09:20:36;6.23;;;1.57;;
16731;SDS011;8484;50.904;9.192;2023-11-19T09:23:03;7.93;;;1.43;;
16731;SDS011;8484;50.904;9.192;2023-11-19T09:25:31;9.73;;;1.77;;
16731;SDS011;8484;50.904;9.192;2023-11-19T09:27:58;7.73;;;1.60;;
16731;SDS011;8484;50.904;9.192;2023-11-19T09:30:25;4.23;;;1.60;;
16731;SDS011;8484;50.904;9.192;2023-11-19T09:32:52;5.03;;;1.40;;
16731;SDS011;8484;50.904;9.192;2023-11-19T09:35:20;11.63;;;1.93;;
16731;SDS011;8484;50.904;9.192;2023-11-19T09:37:47;6.03;;;1.50;;
16731;SDS011;8484;50.904;9.192;2023-11-19T09:40:16;7.57;;;2.00;;
16731;SDS011;8484;50.904;9.192;2023-11-19T09:42:46;9.30;;;1.80;;
16731;SDS011;8484;50.904;9.192;2023-11-19T09:45:15;6.33;;;1.50;;
16731;SDS011;8484;50.904;9.192;2023-11-19T09:47:43;6.07;;;1.60;;
16731;SDS011;8484;50.904;9.192;2023-11-19T09:54:20;8.60;;;1.80;;
16731;SDS011;8484;50.904;9.192;2023-11-19T09:57:08;6.83;;;1.53;;
16731;SDS011;8484;50.904;9.192;2023-11-19T09:59:39;5.93;;;1.60;;
16731;SDS011;8484;50.904;9.192;2023-11-19T10:02:07;10.43;;;2.50;;
16731;SDS011;8484;50.904;9.192;2023-11-19T10:04:34;6.53;;;1.80;;
16731;SDS011;8484;50.904;9.192;2023-11-19T10:07:03;5.67;;;1.90;;
16731;SDS011;8484;50.904;9.192;2023-11-19T10:09:32;9.17;;;2.37;;
16731;SDS011;8484;50.904;9.192;2023-11-19T10:11:59;6.67;;;1.80;;
16731;SDS011;8484;50.904;9.192;2023-11-19T10:14:27;8.50;;;2.10;;
16731;SDS011;8484;50.904;9.192;2023-11-19T10:16:56;10.27;;;1.80;;
16731;SDS011;8484;50.904;9.192;2023-11-19T10:19:24;6.57;;;1.57;;
16731;SDS011;8484;50.904;9.192;2023-11-19T10:21:53;7.53;;;1.87;;
16731;SDS011;8484;50.904;9.192;2023-11-19T10:24:28;11.53;;;2.30;;
16731;SDS011;8484;50.904;9.192;2023-11-19T10:26:59;10.00;;;2.17;;
16731;SDS011;8484;50.904;9.192;2023-11-19T10:29:29;7.30;;;1.77;;
16731;SDS011;8484;50.904;9.192;2023-11-19T10:31:56;7.03;;;2.50;;
16731;SDS011;8484;50.904;9.192;2023-11-19T10:34:24;8.33;;;2.47;;
16731;SDS011;8484;50.904;9.192;2023-11-19T10:36:52;8.40;;;2.70;;
16731;SDS011;8484;50.904;9.192;2023-11-19T10:39:19;8.43;;;2.57;;
16731;SDS011;8484;50.904;9.192;2023-11-19T10:41:50;9.07;;;2.37;;
16731;SDS011;8484;50.904;9.192;2023-11-19T10:44:30;5.77;;;2.00;;
16731;SDS011;8484;50.904;9.192;2023-11-19T10:47:01;6.20;;;1.73;;
16731;SDS011;8484;50.904;9.192;2023-11-19T10:49:28;9.10;;;2.63;;
16731;SDS011;8484;50.904;9.192;2023-11-19T10:51:55;6.17;;;2.07;;
16731;SDS011;8484;50.904;9.192;2023-11-19T10:54:23;8.40;;;2.30;;
16731;SDS011;8484;50.904;9.192;2023-11-19T10:56:54;7.83;;;2.23;;
16731;SDS011;8484;50.904;9.192;2023-11-19T10:59:25;7.87;;;2.20;;
16731;SDS011;8484;50.904;9.192;2023-11-19T11:01:56;8.30;;;2.53;;
16731;SDS011;8484;50.904;9.192;2023-11-19T11:04:24;7.60;;;1.93;;
16731;SDS011;8484;50.904;9.192;2023-11-19T11:06:53;6.93;;;2.03;;
16731;SDS011;8484;50.904;9.192;2023-11-19T11:09:23;10.33;;;2.47;;
16731;SDS011;8484;50.904;9.192;2023-11-19T11:11:54;8.50;;;2.63;;
16731;SDS011;8484;50.904;9.192;2023-11-19T11:14:22;7.67;;;2.20;;
16731;SDS011;8484;50.904;9.192;2023-11-19T11:16:51;6.77;;;1.90;;
16731;SDS011;8484;50.904;9.192;2023-11-19T11:19:19;8.07;;;2.30;;
16731;SDS011;8484;50.904;9.192;2023-11-19T11:21:53;9.80;;;2.43;;
16731;SDS011;8484;50.904;9.192;2023-11-19T11:24:28;6.83;;;2.30;;
16731;SDS011;8484;50.904;9.192;2023-11-19T11:27:34;9.67;;;2.40;;
16731;SDS011;8484;50.904;9.192;2023-11-19T11:30:24;9.47;;;2.40;;
16731;SDS011;8484;50.904;9.192;2023-11-19T11:33:05;11.43;;;2.70;;
16731;SDS011;8484;50.904;9.192;2023-11-19T11:35:44;10.83;;;2.90;;
16731;SDS011;8484;50.904;9.192;2023-11-19T11:38:16;13.13;;;3.03;;
16731;SDS011;8484;50.904;9.192;2023-11-19T11:43:46;10.23;;;2.27;;
16731;SDS011;8484;50.904;9.192;2023-11-19T11:49:24;7.50;;;2.43;;
16731;SDS011;8484;50.904;9.192;2023-11-19T11:52:02;11.03;;;2.60;;
16731;SDS011;8484;50.904;9.192;2023-11-19T11:58:07;11.87;;;2.63;;
16731;SDS011;8484;50.904;9.192;2023-11-19T12:00:38;10.43;;;2.57;;
16731;SDS011;8484;50.904;9.192;2023-11-19T12:03:06;8.83;;;2.40;;
16731;SDS011;8484;50.904;9.192;2023-11-19T12:05:35;10.13;;;2.77;;
16731;SDS011;8484;50.904;9.192;2023-11-19T12:08:07;11.27;;;2.60;;
16731;SDS011;8484;50.904;9.192;2023-11-19T12:10:37;8.10;;;2.33;;
16731;SDS011;8484;50.904;9.192;2023-11-19T12:13:10;12.23;;;2.77;;
16731;SDS011;8484;50.904;9.192;2023-11-19T12:18:38;11.80;;;3.47;;
16731;SDS011;8484;50.904;9.192;2023-11-19T12:21:07;15.03;;;3.73;;
16731;SDS011;8484;50.904;9.192;2023-11-19T12:23:51;11.70;;;2.90;;
16731;SDS011;8484;50.904;9.192;2023-11-19T12:30:43;15.10;;;3.17;;
16731;SDS011;8484;50.904;9.192;2023-11-19T12:33:12;9.43;;;2.63;;
16731;SDS011;8484;50.904;9.192;2023-11-19T12:35:40;8.60;;;2.60;;
16731;SDS011;8484;50.904;9.192;2023-11-19T12:38:08;11.23;;;2.50;;
16731;SDS011;8484;50.904;9.192;2023-11-19T12:40:44;10.17;;;2.13;;
16731;SDS011;8484;50.904;9.192;2023-11-19T12:43:13;9.97;;;2.40;;
16731;SDS011;8484;50.904;9.192;2023-11-19T12:45:48;10.47;;;2.80;;
16731;SDS011;8484;50.904;9.192;2023-11-19T12:48:17;11.43;;;2.43;;
16731;SDS011;8484;50.904;9.192;2023-11-19T12:50:50;9.93;;;2.33;;
16731;SDS011;8484;50.904;9.192;2023-11-19T12:53:18;17.03;;;3.40;;
16731;SDS011;8484;50.904;9.192;2023-11-19T12:55:45;10.73;;;2.83;;
16731;SDS011;8484;50.904;9.192;2023-11-19T12:58:27;12.07;;;2.90;;
16731;SDS011;8484;50.904;9.192;2023-11-19T13:00:58;14.27;;;2.53;;
16731;SDS011;8484;50.904;9.192;2023-11-19T13:03:31;8.53;;;2.03;;
16731;SDS011;8484;50.904;9.192;2023-11-19T13:06:11;9.23;;;2.40;;
16731;SDS011;8484;50.904;9.192;2023-11-19T13:31:58;11.17;;;2.73;;
16731;SDS011;8484;50.904;9.192;2023-11-19T13:34:55;14.20;;;2.93;;
16731;SDS011;8484;50.904;9.192;2023-11-19T13:37:40;12.07;;;3.17;;
16731;SDS011;8484;50.904;9.192;2023-11-19T13:40:07;9.67;;;3.00;;
16731;SDS011;8484;50.904;9.192;2023-11-19T13:42:38;7.60;;;2.23;;
16731;SDS011;8484;50.904;9.192;2023-11-19T13:45:07;11.50;;;3.40;;
16731;SDS011;8484;50.904;9.192;2023-11-19T13:47:36;8.90;;;2.60;;
16731;SDS011;8484;50.904;9.192;2023-11-19T13:50:06;13.53;;;2.87;;
16731;SDS011;8484;50.904;9.192;2023-11-19T13:52:34;11.33;;;2.30;;
16731;SDS011;8484;50.904;9.192;2023-11-19T13:55:06;10.57;;;2.77;;
16731;SDS011;8484;50.904;9.192;2023-11-19T13:57:34;13.13;;;2.30;;
16731;SDS011;8484;50.904;9.192;2023-11-19T14:00:01;8.13;;;2.37;;
16731;SDS011;8484;50.904;9.192;2023-11-19T14:02:32;8.33;;;2.47;;
16731;SDS011;8484;50.904;9.192;2023-11-19T14:04:59;7.77;;;1.93;;
16731;SDS011;8484;50.904;9.192;2023-11-19T14:07:25;7.87;;;2.17;;
16731;SDS011;8484;50.904;9.192;2023-11-19T14:16:11;7.20;;;2.03;;
16731;SDS011;8484;50.904;9.192;2023-11-19T14:18:38;8.27;;;1.83;;
16731;SDS011;8484;50.904;9.192;2023-11-19T14:21:05;8.00;;;2.33;;
16731;SDS011;8484;50.904;9.192;2023-11-19T14:23:32;7.67;;;1.70;;
16731;SDS011;8484;50.904;9.192;2023-11-19T14:25:59;9.20;;;2.10;;
16731;SDS011;8484;50.904;9.192;2023-11-19T14:28:26;6.90;;;1.80;;
16731;SDS011;8484;50.904;9.192;2023-11-19T14:30:53;5.10;;;1.50;;
16731;SDS011;8484;50.904;9.192;2023-11-19T14:33:23;7.03;;;1.90;;
16731;SDS011;8484;50.904;9.192;2023-11-19T14:35:50;7.83;;;1.87;;
16731;SDS011;8484;50.904;9.192;2023-11-19T14:38:17;8.07;;;2.00;;
16731;SDS011;8484;50.904;9.192;2023-11-19T14:40:44;7.83;;;1.40;;
16731;SDS011;8484;50.904;9.192;2023-11-19T14:43:11;7.87;;;1.90;;
16731;SDS011;8484;50.904;9.192;2023-11-19T14:45:40;8.83;;;2.07;;
16731;SDS011;8484;50.904;9.192;2023-11-19T14:48:07;5.03;;;1.60;;
16731;SDS011;8484;50.904;9.192;2023-11-19T14:50:36;5.47;;;2.00;;
16731;SDS011;8484;50.904;9.192;2023-11-19T14:53:03;6.13;;;2.10;;
16731;SDS011;8484;50.904;9.192;2023-11-19T14:55:30;6.20;;;1.93;;
16731;SDS011;8484;50.904;9.192;2023-11-19T14:57:58;7.13;;;1.90;;
16731;SDS011;8484;50.904;9.192;2023-11-19T15:00:25;5.67;;;1.80;;
16731;SDS011;8484;50.904;9.192;2023-11-19T15:02:52;5.87;;;2.17;;
16731;SDS011;8484;50.904;9.192;2023-11-19T15:05:19;7.47;;;2.40;;
16731;SDS011;8484;50.904;9.192;2023-11-19T15:07:47;11.63;;;2.20;;
16731;SDS011;8484;50.904;9.192;2023-11-19T15:10:14;6.40;;;1.97;;
16731;SDS011;8484;50.904;9.192;2023-11-19T15:12:41;8.13;;;2.10;;
16731;SDS011;8484;50.904;9.192;2023-11-19T15:15:08;11.83;;;2.87;;
16731;SDS011;8484;50.904;9.192;2023-11-19T15:17:38;9.20;;;2.40;;
16731;SDS011;8484;50.904;9.192;2023-11-19T15:20:06;9.93;;;1.90;;
16731;SDS011;8484;50.904;9.192;2023-11-19T15:22:32;7.53;;;2.27;;
16731;SDS011;8484;50.904;9.192;2023-11-19T15:25:00;7.90;;;2.43;;
16731;SDS011;8484;50.904;9.192;2023-11-19T15:27:28;12.77;;;2.73;;
16731;SDS011;8484;50.904;9.192;2023-11-19T15:29:55;10.07;;;3.00;;
16731;SDS011;8484;50.904;9.192;2023-11-19T15:32:22;10.27;;;2.90;;
16731;SDS011;8484;50.904;9.192;2023-11-19T15:34:49;10.27;;;3.53;;
16731;SDS011;8484;50.904;9.192;2023-11-19T15:37:16;8.47;;;2.17;;
16731;SDS011;8484;50.904;9.192;2023-11-19T15:39:43;5.73;;;1.87;;
16731;SDS011;8484;50.904;9.192;2023-11-19T15:42:11;9.13;;;2.47;;
16731;SDS011;8484;50.904;9.192;2023-11-19T15:44:38;8.80;;;2.97;;
16731;SDS011;8484;50.904;9.192;2023-11-19T15:47:05;11.20;;;2.40;;
16731;SDS011;8484;50.904;9.192;2023-11-19T15:49:32;7.53;;;2.27;;
16731;SDS011;8484;50.904;9.192;2023-11-19T15:51:59;6.47;;;1.73;;
16731;SDS011;8484;50.904;9.192;2023-11-19T15:54:26;9.47;;;2.33;;
16731;SDS011;8484;50.904;9.192;2023-11-19T15:56:53;8.67;;;2.67;;
16731;SDS011;8484;50.904;9.192;2023-11-19T15:59:21;6.23;;;2.03;;
16731;SDS011;8484;50.904;9.192;2023-11-19T16:01:48;8.50;;;1.93;;